Time;durP1;ratioP1;P1;durP2;ratioP2;P2;SDS_P1;SDS_P2;PMS_P1;PMS_P2;Temp;Humidity;BMP_temperature;BMP_pressure;BME280_temperature;BME280_humidity;BME280_pressure;Samples;Min_cycle;Max_cycle;Signal;HPM_P1;HPM_P2
2022/06/03 00:04:44;;;;;;;11.13;8.93;;;6.70;99.90;;;;;;10094446;29;20628;-79
2022/06/03 00:10:21;;;;;;;12.60;9.07;;;6.70;99.90;;;;;;10096346;29;20297;-80
2022/06/03 00:15:26;;;;;;;10.83;8.40;;;6.60;99.90;;;;;;10077169;29;20333;-79
2022/06/03 00:20:41;;;;;;;12.97;8.10;;;6.50;99.90;;;;;;10093718;29;20620;-80
2022/06/03 00:26:13;;;;;;;7.97;7.17;;;6.40;99.90;;;;;;10098464;29;20268;-80
2022/06/03 00:31:16;;;;;;;8.37;7.57;;;6.40;99.90;;;;;;10094304;29;20701;-79
2022/06/03 00:36:33;;;;;;;11.13;7.73;;;6.30;99.90;;;;;;10093246;29;20288;-80
2022/06/03 00:41:59;;;;;;;7.47;6.07;;;6.30;99.90;;;;;;10091245;29;20240;-79
2022/06/03 00:47:24;;;;;;;6.53;5.90;;;6.20;99.90;;;;;;10093024;29;20273;-79
2022/06/03 00:52:29;;;;;;;6.30;5.73;;;6.10;99.90;;;;;;10093842;29;20264;-79
2022/06/03 00:58:00;;;;;;;12.30;5.60;;;6.20;99.90;;;;;;10089987;29;20285;-79
2022/06/03 01:03:08;;;;;;;6.63;5.70;;;6.20;99.90;;;;;;10090418;29;20320;-79
2022/06/03 01:08:36;;;;;;;6.37;5.77;;;6.10;99.90;;;;;;10055227;29;20237;-79
2022/06/03 01:14:05;;;;;;;8.10;5.50;;;6.00;99.90;;;;;;10080448;29;20695;-79
2022/06/03 01:19:51;;;;;;;6.80;6.10;;;5.90;99.90;;;;;;10061724;29;20320;-79
2022/06/03 01:25:31;;;;;;;6.10;5.10;;;6.00;99.90;;;;;;10054844;29;20220;-80
2022/06/03 01:30:37;;;;;;;9.90;6.23;;;5.80;99.90;;;;;;10090834;29;20666;-79
2022/06/03 01:35:51;;;;;;;6.80;6.10;;;5.70;99.90;;;;;;10090219;29;20260;-79
2022/06/03 01:41:04;;;;;;;6.33;5.73;;;5.70;99.90;;;;;;10090002;29;20236;-80
2022/06/03 01:46:31;;;;;;;7.53;6.83;;;5.80;99.90;;;;;;10090552;29;20657;-79
2022/06/03 01:51:52;;;;;;;8.33;7.43;;;5.80;99.90;;;;;;10058023;29;20329;-79
2022/06/03 01:56:55;;;;;;;10.57;6.73;;;5.80;99.90;;;;;;10103348;29;20725;-80
2022/06/03 02:02:00;;;;;;;7.53;6.83;;;5.60;99.90;;;;;;10090331;29;20236;-79
2022/06/03 02:07:37;;;;;;;8.30;7.23;;;5.60;99.90;;;;;;10089770;29;20288;-79
2022/06/03 02:13:00;;;;;;;8.60;7.23;;;5.50;99.90;;;;;;10085823;29;20205;-79
2022/06/03 02:18:22;;;;;;;6.90;5.93;;;5.40;99.90;;;;;;10090072;29;20364;-79
2022/06/03 02:23:52;;;;;;;9.73;6.60;;;5.30;99.90;;;;;;10087236;29;20260;-80
2022/06/03 02:34:43;;;;;;;6.47;5.87;;;5.30;99.90;;;;;;10088100;29;20670;-79
2022/06/03 02:40:41;;;;;;;6.80;6.07;;;5.20;99.90;;;;;;10089857;29;20637;-79
2022/06/03 02:46:32;;;;;;;7.10;5.97;;;5.20;99.90;;;;;;10103025;29;20228;-79
2022/06/03 02:51:41;;;;;;;7.40;6.60;;;5.10;99.90;;;;;;10101023;29;20260;-79
2022/06/03 02:57:34;;;;;;;8.53;6.87;;;5.20;99.90;;;;;;10101844;29;20267;-80
2022/06/03 03:02:55;;;;;;;7.60;6.80;;;5.30;99.90;;;;;;10084913;29;20676;-79
2022/06/03 03:08:20;;;;;;;7.77;7.07;;;5.20;99.90;;;;;;10109856;29;20248;-79
2022/06/03 03:14:03;;;;;;;12.67;8.10;;;5.20;99.90;;;;;;10110824;29;20743;-80
2022/06/03 03:19:16;;;;;;;7.90;7.07;;;5.30;99.90;;;;;;10070532;29;20717;-79
2022/06/03 03:24:53;;;;;;;7.57;6.63;;;5.50;99.90;;;;;;10060522;29;20693;-79
2022/06/03 03:30:14;;;;;;;8.53;7.73;;;5.60;99.90;;;;;;10094725;29;20205;-79
2022/06/03 03:35:45;;;;;;;8.40;7.40;;;5.50;99.90;;;;;;10096275;29;20321;-80
2022/06/03 03:41:03;;;;;;;8.03;6.27;;;5.60;99.90;;;;;;10092922;29;20232;-80
2022/06/03 03:46:24;;;;;;;12.47;7.07;;;5.90;99.90;;;;;;10097060;29;20304;-79
2022/06/03 03:52:11;;;;;;;8.40;7.53;;;6.10;99.90;;;;;;10095756;29;20344;-80
2022/06/03 03:57:43;;;;;;;12.17;8.17;;;6.20;99.90;;;;;;10093860;29;20486;-80
2022/06/03 04:03:30;;;;;;;11.30;8.30;;;6.40;99.90;;;;;;10084228;29;20625;-79
2022/06/03 04:08:56;;;;;;;13.07;11.67;;;6.80;99.90;;;;;;10086391;29;20256;-80
2022/06/03 04:14:24;;;;;;;13.87;10.47;;;7.30;99.90;;;;;;10070814;29;20236;-80
2022/06/03 04:19:50;;;;;;;13.73;11.73;;;7.30;99.90;;;;;;10090337;29;20639;-79
2022/06/03 04:25:31;;;;;;;14.83;12.20;;;7.70;99.90;;;;;;10084055;29;20241;-79
2022/06/03 04:30:54;;;;;;;17.30;12.90;;;8.40;99.90;;;;;;10095172;29;20232;-79
2022/06/03 04:36:12;;;;;;;19.57;15.40;;;8.60;99.90;;;;;;10092598;29;20260;-79
2022/06/03 04:41:42;;;;;;;19.23;15.63;;;9.10;99.90;;;;;;10107139;29;20293;-79
2022/06/03 04:47:17;;;;;;;18.37;14.73;;;9.30;99.90;;;;;;10067279;29;20286;-79
2022/06/03 04:52:25;;;;;;;18.70;14.17;;;9.40;99.90;;;;;;9996596;29;20269;-80
2022/06/03 04:57:52;;;;;;;16.53;14.23;;;9.90;99.90;;;;;;9988182;29;20312;-80
2022/06/03 05:03:34;;;;;;;18.57;14.83;;;10.20;99.90;;;;;;9988515;29;20289;-80
2022/06/03 05:09:08;;;;;;;18.23;13.80;;;10.50;99.90;;;;;;9976838;29;20254;-79
2022/06/03 05:14:28;;;;;;;17.67;13.77;;;10.80;99.90;;;;;;10011421;29;20333;-79
2022/06/03 05:19:30;;;;;;;15.10;13.13;;;11.10;99.90;;;;;;10011736;29;20270;-79
2022/06/03 05:24:56;;;;;;;16.63;13.27;;;11.40;99.90;;;;;;10005216;29;20246;-79
2022/06/03 05:29:58;;;;;;;9.33;7.83;;;11.70;99.90;;;;;;10080470;29;20642;-80
2022/06/03 05:35:19;;;;;;;8.20;6.83;;;11.80;99.90;;;;;;10082952;29;20292;-80
2022/06/03 05:40:24;;;;;;;9.53;8.53;;;12.00;99.90;;;;;;10071781;29;20298;-80
2022/06/03 05:46:13;;;;;;;8.37;7.57;;;12.30;99.90;;;;;;10084914;29;20610;-80
2022/06/03 05:51:51;;;;;;;9.10;8.10;;;12.60;99.90;;;;;;10085526;29;20730;-80
2022/06/03 05:57:03;;;;;;;9.93;8.70;;;12.90;99.90;;;;;;10084223;29;20272;-80
2022/06/03 06:02:23;;;;;;;6.97;6.10;;;13.20;99.90;;;;;;10082622;29;20265;-81
2022/06/03 06:07:34;;;;;;;9.40;5.60;;;13.50;99.90;;;;;;10081021;29;20679;-80
2022/06/03 06:12:47;;;;;;;6.27;5.33;;;13.80;99.90;;;;;;10062524;29;20252;-79
2022/06/03 06:17:58;;;;;;;3.77;3.47;;;14.10;99.90;;;;;;10084282;29;20507;-79
2022/06/03 06:23:24;;;;;;;4.00;3.60;;;14.60;99.90;;;;;;10117935;29;20247;-79
2022/06/03 06:28:55;;;;;;;4.47;4.07;;;14.70;99.90;;;;;;10086451;29;20236;-79
2022/06/03 06:34:13;;;;;;;5.37;4.27;;;15.00;99.90;;;;;;10093298;29;20612;-79
2022/06/03 06:39:43;;;;;;;6.60;3.13;;;15.40;99.90;;;;;;10094604;29;20682;-78
2022/06/03 06:44:49;;;;;;;4.57;4.13;;;15.40;99.90;;;;;;10078363;29;20305;-79
2022/06/03 06:50:07;;;;;;;7.87;5.80;;;15.80;99.90;;;;;;10084349;29;20329;-79
2022/06/03 06:55:21;;;;;;;6.37;5.77;;;15.90;99.90;;;;;;10088199;29;20284;-79
2022/06/03 07:00:26;;;;;;;5.80;5.27;;;16.20;99.90;;;;;;10091584;29;20317;-79
2022/06/03 07:05:47;;;;;;;10.17;5.13;;;16.50;99.90;;;;;;10059950;29;20600;-79
2022/06/03 07:10:59;;;;;;;7.77;6.30;;;16.80;99.90;;;;;;10058751;29;20678;-79
2022/06/03 07:21:58;;;;;;;3.60;3.30;;;17.40;99.90;;;;;;10086338;29;20234;-78
2022/06/03 07:27:12;;;;;;;9.47;5.13;;;17.60;99.90;;;;;;10089628;29;20261;-79
2022/06/03 07:32:22;;;;;;;5.00;4.50;;;17.60;99.90;;;;;;10104034;29;20684;-78
2022/06/03 07:37:36;;;;;;;4.10;3.70;;;17.90;99.90;;;;;;10092550;29;20254;-78
2022/06/03 07:43:07;;;;;;;2.97;2.37;;;18.10;99.90;;;;;;10089201;29;20235;-79
2022/06/03 07:48:22;;;;;;;3.93;2.60;;;18.30;98.60;;;;;;10086549;29;20310;-78
2022/06/03 07:53:36;;;;;;;4.20;2.63;;;18.40;98.60;;;;;;10087000;29;20296;-78
2022/06/03 07:58:38;;;;;;;3.63;3.33;;;18.40;96.10;;;;;;10088354;29;20268;-80
2022/06/03 08:03:41;;;;;;;6.53;5.93;;;18.60;95.00;;;;;;10089403;29;20281;-78
2022/06/03 08:14:06;;;;;;;3.87;3.57;;;18.80;95.10;;;;;;10089197;29;20617;-78
2022/06/03 08:19:21;;;;;;;3.53;2.73;;;19.00;95.50;;;;;;10089995;29;20256;-77
2022/06/03 08:24:30;;;;;;;5.23;4.77;;;19.10;94.00;;;;;;10086151;29;20291;-78
2022/06/03 08:29:36;;;;;;;6.27;5.77;;;19.10;93.70;;;;;;10119256;23;20282;-78
2022/06/03 08:34:44;;;;;;;2.87;2.37;;;19.10;94.30;;;;;;10152630;23;20335;-78
2022/06/03 08:39:56;;;;;;;2.20;2.03;;;18.90;90.80;;;;;;10126894;23;20333;-89
2022/06/03 08:45:07;;;;;;;7.37;3.23;;;19.30;91.40;;;;;;10128767;29;20711;-89
2022/06/03 08:50:13;;;;;;;4.00;3.03;;;19.60;91.20;;;;;;10131708;29;20232;-88
2022/06/03 08:55:29;;;;;;;2.70;2.50;;;19.50;86.70;;;;;;10130816;29;20790;-89
2022/06/03 09:01:08;;;;;;;2.47;2.27;;;19.50;87.80;;;;;;10130889;29;20259;-88
2022/06/03 09:06:16;;;;;;;4.47;3.00;;;19.70;88.10;;;;;;10166275;29;20276;-89
2022/06/03 09:12:00;;;;;;;4.00;3.60;;;20.00;89.40;;;;;;10166171;29;20232;-89
2022/06/03 09:17:07;;;;;;;6.40;3.23;;;20.10;88.80;;;;;;9995477;29;20268;-88
2022/06/03 09:22:15;;;;;;;7.87;3.73;;;19.90;83.60;;;;;;9970737;29;20360;-89
2022/06/03 09:27:17;;;;;;;3.70;3.40;;;20.10;86.50;;;;;;9989729;29;20335;-89
2022/06/03 09:32:23;;;;;;;4.03;3.73;;;20.00;88.60;;;;;;10011131;29;20289;-89
2022/06/03 09:37:30;;;;;;;4.47;4.07;;;20.00;87.00;;;;;;10010828;29;20262;-89
2022/06/03 09:42:35;;;;;;;5.33;4.47;;;19.80;85.20;;;;;;10010632;29;20352;-88
2022/06/03 09:47:38;;;;;;;3.57;3.27;;;20.00;86.40;;;;;;10010537;29;20293;-89
2022/06/03 09:52:40;;;;;;;4.77;4.37;;;20.20;87.50;;;;;;10105923;29;20298;-89
2022/06/03 09:57:44;;;;;;;3.97;3.67;;;20.00;86.80;;;;;;10129098;29;20255;-89
2022/06/03 10:02:47;;;;;;;4.93;4.53;;;20.10;86.90;;;;;;10128974;29;20237;-89
2022/06/03 10:07:58;;;;;;;4.83;4.33;;;20.10;86.70;;;;;;10128848;29;20243;-89
2022/06/03 10:13:01;;;;;;;4.93;4.53;;;20.00;87.70;;;;;;10129864;29;20232;-89
2022/06/03 10:18:44;;;;;;;5.27;4.77;;;20.00;87.30;;;;;;10128513;29;20270;-89
2022/06/03 10:23:51;;;;;;;5.80;5.30;;;20.10;86.60;;;;;;10129386;29;20239;-89
2022/06/03 10:29:04;;;;;;;6.77;4.80;;;20.00;85.60;;;;;;10129613;29;20236;-89
2022/06/03 10:34:11;;;;;;;5.00;4.60;;;20.10;88.60;;;;;;10128437;29;20235;-88
2022/06/03 10:39:17;;;;;;;5.73;4.70;;;20.10;81.10;;;;;;10128103;29;20247;-89
2022/06/03 10:44:23;;;;;;;5.90;5.40;;;20.10;85.60;;;;;;10129184;29;20263;-89
2022/06/03 10:49:28;;;;;;;5.47;5.07;;;19.90;86.90;;;;;;10129298;29;20271;-89
2022/06/03 11:05:28;;;;;;;6.60;6.10;;;19.70;88.00;;;;;;10127702;29;20591;-89
2022/06/03 11:10:48;;;;;;;6.80;6.13;;;19.70;87.90;;;;;;10143903;29;20692;-89
2022/06/03 11:15:51;;;;;;;5.87;4.83;;;19.80;88.20;;;;;;10127866;29;20276;-88
2022/06/03 11:20:55;;;;;;;6.57;4.43;;;20.00;86.80;;;;;;10133116;29;20655;-89
2022/06/03 11:26:00;;;;;;;8.60;5.80;;;20.50;88.50;;;;;;10135044;29;20227;-89
2022/06/03 11:31:17;;;;;;;5.60;5.10;;;20.40;87.50;;;;;;10136166;29;20315;-89
2022/06/03 11:36:36;;;;;;;6.77;6.17;;;20.50;85.80;;;;;;10119489;29;20299;-88
2022/06/03 11:41:47;;;;;;;5.10;4.40;;;20.50;85.30;;;;;;10132469;29;20315;-92
2022/06/03 11:47:14;;;;;;;5.77;3.60;;;20.50;84.40;;;;;;10128467;29;20324;-92
2022/06/03 11:52:17;;;;;;;4.83;3.13;;;;;;;;;;10122701;29;20286;-89
2022/06/03 11:57:20;;;;;;;4.53;3.10;;;21.30;80.10;;;;;;9772298;29;9999868;-88
2022/06/03 12:02:32;;;;;;;6.17;3.90;;;21.00;91.00;;;;;;10100467;29;20653;-89
2022/06/03 12:07:51;;;;;;;5.77;2.60;;;20.80;92.00;;;;;;10130532;29;20302;-88
2022/06/03 12:13:15;;;;;;;10.77;2.93;;;21.10;89.70;;;;;;10112142;29;20723;-88
2022/06/03 12:18:34;;;;;;;10.90;4.20;;;21.20;83.80;;;;;;10116735;29;20259;-89
2022/06/03 12:23:37;;;;;;;3.50;3.20;;;21.20;89.40;;;;;;10129884;29;20239;-89
2022/06/03 12:28:45;;;;;;;4.30;3.60;;;21.10;88.00;;;;;;10123514;29;20295;-89
2022/06/03 12:34:08;;;;;;;4.53;3.20;;;21.20;89.30;;;;;;10125612;29;20304;-95
2022/06/03 12:39:27;;;;;;;4.77;3.13;;;21.30;91.00;;;;;;10126376;29;20256;-89
2022/06/03 12:44:44;;;;;;;3.07;2.87;;;21.00;91.60;;;;;;10135094;29;20327;-89
2022/06/03 12:49:50;;;;;;;3.47;2.63;;;21.10;83.00;;;;;;10126066;29;20253;-88
2022/06/03 12:55:14;;;;;;;4.00;3.60;;;21.20;86.70;;;;;;10128290;29;20232;-89
2022/06/03 13:00:20;;;;;;;4.60;4.20;;;21.20;85.90;;;;;;10128242;29;20263;-89
2022/06/03 13:05:26;;;;;;;3.60;3.30;;;21.00;91.50;;;;;;10128164;29;20236;-89
2022/06/03 13:11:30;;;;;;;7.00;5.00;;;21.10;84.30;;;;;;10128173;29;20208;-89
2022/06/03 13:16:35;;;;;;;6.03;3.63;;;21.20;81.50;;;;;;10129418;29;20272;-89
2022/06/03 13:21:57;;;;;;;4.40;3.03;;;21.60;88.10;;;;;;10128302;29;20259;-89
2022/06/03 13:27:22;;;;;;;4.37;3.97;;;21.20;89.80;;;;;;10127833;29;20228;-89
2022/06/03 13:32:34;;;;;;;7.73;3.80;;;21.20;90.40;;;;;;10111142;29;20268;-88
2022/06/03 13:37:49;;;;;;;2.80;2.60;;;21.40;89.80;;;;;;10125066;29;20260;-89
2022/06/03 13:42:59;;;;;;;4.53;3.67;;;21.70;87.30;;;;;;10122778;29;20292;-88
2022/06/03 13:48:11;;;;;;;3.70;3.47;;;21.90;85.10;;;;;;10126918;29;20300;-89
2022/06/03 13:53:24;;;;;;;4.20;3.80;;;21.90;79.90;;;;;;10142356;29;20251;-88
2022/06/03 13:58:47;;;;;;;5.10;4.00;;;21.90;84.90;;;;;;10127208;29;20659;-89
2022/06/03 14:04:00;;;;;;;3.95;3.58;;;21.60;88.10;;;;;;10124257;29;20671;-88
2022/06/03 14:09:27;;;;;;;13.97;2.73;;;21.50;78.20;;;;;;10125207;29;20244;-88
2022/06/03 14:14:48;;;;;;;9.20;3.30;;;21.70;86.80;;;;;;10124673;29;20280;-89
2022/06/03 14:19:57;;;;;;;5.57;2.10;;;22.40;78.60;;;;;;10125376;29;20255;-88
2022/06/03 14:25:15;;;;;;;5.15;2.75;;;22.40;74.70;;;;;;10126911;29;20240;-88
2022/06/03 14:30:20;;;;;;;3.53;3.33;;;;;;;;;;10126231;29;20231;-88
2022/06/03 14:35:56;;;;;;;3.35;3.05;;;21.90;75.80;;;;;;10126923;29;20662;-88
2022/06/03 14:40:58;;;;;;;2.30;2.08;;;22.70;73.20;;;;;;10105283;29;20331;-88
2022/06/03 14:46:11;;;;;;;3.80;3.50;;;22.70;74.10;;;;;;10127902;29;20306;-88
2022/06/03 14:51:36;;;;;;;3.83;2.28;;;22.40;83.30;;;;;;10129187;29;20251;-88
2022/06/03 14:56:55;;;;;;;7.88;3.25;;;22.30;81.60;;;;;;10134438;29;20244;-88
2022/06/03 15:02:17;;;;;;;4.70;3.15;;;22.30;75.80;;;;;;10136464;29;20255;-87
2022/06/03 15:07:34;;;;;;;5.28;2.80;;;22.10;84.20;;;;;;10136236;29;20264;-87
2022/06/03 15:12:37;;;;;;;5.10;2.25;;;22.30;82.30;;;;;;10135832;29;20279;-88
2022/06/03 15:17:39;;;;;;;2.72;2.05;;;22.30;70.30;;;;;;10135253;29;20268;-87
2022/06/03 15:22:55;;;;;;;4.40;3.72;;;22.50;68.20;;;;;;10133979;29;20765;-87
2022/06/03 15:28:02;;;;;;;3.88;2.45;;;22.30;81.70;;;;;;10135168;29;20263;-87
2022/06/03 15:33:19;;;;;;;4.38;4.00;;;22.50;70.70;;;;;;10135044;29;20235;-87
2022/06/03 15:38:22;;;;;;;6.97;6.28;;;22.20;83.00;;;;;;10133550;29;20299;-87
2022/06/03 15:43:28;;;;;;;3.25;2.35;;;22.00;83.90;;;;;;10132671;29;20742;-88
2022/06/03 15:48:32;;;;;;;2.83;1.80;;;22.10;71.00;;;;;;10130711;29;20227;-87
2022/06/03 15:53:50;;;;;;;6.57;4.57;;;22.60;69.10;;;;;;10131679;29;20748;-88
2022/06/03 15:59:07;;;;;;;5.25;4.85;;;22.40;82.80;;;;;;10134404;29;20311;-89
2022/06/03 16:04:46;;;;;;;6.68;5.60;;;21.90;86.80;;;;;;10133634;29;20287;-89
2022/06/03 16:09:56;;;;;;;7.15;5.45;;;21.80;88.10;;;;;;10131124;29;20227;-89
2022/06/03 16:15:31;;;;;;;6.30;5.72;;;21.60;89.60;;;;;;9765917;29;10000420;-89
2022/06/03 16:21:00;;;;;;;5.97;5.47;;;21.60;88.70;;;;;;10129163;29;20299;-88
2022/06/03 16:26:21;;;;;;;6.60;5.68;;;21.60;89.00;;;;;;10122418;29;20256;-89
2022/06/03 16:31:44;;;;;;;7.25;6.60;;;21.50;89.70;;;;;;10130795;29;20239;-89
2022/06/03 16:37:11;;;;;;;7.80;6.55;;;21.40;89.70;;;;;;10128114;29;20235;-88
2022/06/03 16:42:49;;;;;;;7.00;6.40;;;21.40;89.80;;;;;;10121776;29;20268;-89
2022/06/03 16:48:02;;;;;;;6.32;5.82;;;21.30;90.10;;;;;;10075536;29;20338;-89
2022/06/03 16:53:15;;;;;;;7.60;7.00;;;21.10;90.40;;;;;;10049782;29;20257;-89
2022/06/03 16:58:20;;;;;;;12.67;7.53;;;21.30;90.10;;;;;;10050719;29;20294;-89
2022/06/03 17:03:27;;;;;;;7.85;7.15;;;21.30;90.20;;;;;;9726520;29;10000007;-87
2022/06/03 17:08:38;;;;;;;7.20;6.60;;;21.20;90.30;;;;;;10058001;29;20938;-89
2022/06/03 17:13:44;;;;;;;8.40;6.63;;;21.10;90.40;;;;;;10046836;29;20253;-88
2022/06/03 17:18:47;;;;;;;7.33;6.73;;;21.10;90.50;;;;;;10050585;29;20849;-88
2022/06/03 17:24:07;;;;;;;7.68;6.97;;;21.00;90.60;;;;;;10113412;29;20647;-88
2022/06/03 17:29:13;;;;;;;7.30;6.67;;;21.00;90.70;;;;;;10127618;29;20294;-88
2022/06/03 17:34:55;;;;;;;7.33;6.70;;;21.00;90.80;;;;;;10127826;29;20227;-88
2022/06/03 17:40:09;;;;;;;7.57;6.97;;;20.90;90.80;;;;;;10124891;29;20255;-88
2022/06/03 17:45:27;;;;;;;6.97;6.43;;;20.90;90.80;;;;;;10126764;29;20264;-88
2022/06/03 17:50:54;;;;;;;7.50;6.80;;;20.80;91.00;;;;;;10126470;29;20710;-88
2022/06/03 17:55:56;;;;;;;8.05;7.30;;;20.80;90.80;;;;;;10118069;29;20725;-88
2022/06/03 18:01:02;;;;;;;7.93;7.22;;;20.80;91.00;;;;;;10129625;29;20284;-89
2022/06/03 18:06:20;;;;;;;6.65;6.05;;;20.50;91.60;;;;;;10129496;29;20244;-91
2022/06/03 18:11:30;;;;;;;10.63;2.70;;;20.30;89.50;;;;;;10129457;29;20228;-92
2022/06/03 18:16:39;;;;;;;7.20;3.17;;;20.00;87.50;;;;;;10128315;29;20239;-89
2022/06/03 18:21:58;;;;;;;6.57;2.93;;;19.50;87.30;;;;;;10129173;29;20307;-88
2022/06/03 18:27:19;;;;;;;8.53;2.27;;;19.20;91.00;;;;;;10130502;29;20674;-89
2022/06/03 18:32:50;;;;;;;12.57;3.50;;;18.80;92.10;;;;;;10112837;29;20216;-89
2022/06/03 18:38:19;;;;;;;11.50;4.33;;;18.40;93.20;;;;;;10113174;29;20260;-89
2022/06/03 18:43:53;;;;;;;8.67;3.67;;;18.10;93.10;;;;;;10128273;29;20275;-89
2022/06/03 18:49:14;;;;;;;11.50;4.00;;;17.70;96.70;;;;;;10128425;29;20235;-89
2022/06/03 18:54:34;;;;;;;7.30;3.37;;;17.40;99.00;;;;;;10128412;29;20257;-89
2022/06/03 19:00:16;;;;;;;13.23;6.43;;;17.20;99.90;;;;;;10129719;29;20256;-94
2022/06/03 19:05:42;;;;;;;7.27;3.57;;;17.10;99.90;;;;;;10125700;29;20243;-89
2022/06/03 19:11:03;;;;;;;6.93;4.87;;;17.20;99.90;;;;;;10127974;29;20287;-89
2022/06/03 19:16:40;;;;;;;8.93;4.20;;;16.50;99.90;;;;;;10126904;29;20242;-88
2022/06/03 19:22:00;;;;;;;10.00;4.80;;;16.10;99.90;;;;;;10125542;29;20294;-88
2022/06/03 19:27:14;;;;;;;5.03;4.27;;;15.70;99.90;;;;;;10128098;29;20260;-88
2022/06/03 19:32:24;;;;;;;7.37;4.50;;;15.40;99.90;;;;;;10127621;29;20279;-88
2022/06/03 19:37:51;;;;;;;7.67;4.33;;;15.20;99.90;;;;;;10128592;29;20244;-88
2022/06/03 19:43:16;;;;;;;4.60;4.20;;;15.20;99.90;;;;;;10141138;29;20263;-88
2022/06/03 19:48:50;;;;;;;6.67;4.60;;;14.80;99.90;;;;;;10134385;29;20290;-88
2022/06/03 19:53:53;;;;;;;5.07;4.60;;;14.50;99.90;;;;;;10118272;29;20255;-88
2022/06/03 19:59:06;;;;;;;8.27;5.70;;;14.40;99.90;;;;;;10132436;29;20240;-88
2022/06/03 20:04:32;;;;;;;19.73;7.13;;;14.30;99.90;;;;;;10133348;29;20243;-88
2022/06/03 20:09:50;;;;;;;18.83;7.67;;;14.00;99.90;;;;;;10129588;29;20236;-88
2022/06/03 20:14:57;;;;;;;9.93;6.57;;;13.90;99.90;;;;;;10141320;29;20279;-87
2022/06/03 20:20:05;;;;;;;10.97;5.90;;;13.70;99.90;;;;;;10133439;29;20251;-87
2022/06/03 20:25:37;;;;;;;15.60;7.57;;;13.50;99.90;;;;;;10132224;29;20240;-88
2022/06/03 20:30:40;;;;;;;7.97;5.63;;;13.50;99.90;;;;;;10131974;29;20260;-87
2022/06/03 20:36:01;;;;;;;7.20;5.90;;;13.30;99.90;;;;;;10149447;29;20279;-87
2022/06/03 20:41:33;;;;;;;22.53;7.63;;;13.20;99.90;;;;;;10131042;29;20271;-88
2022/06/03 20:46:45;;;;;;;14.60;7.33;;;13.00;99.90;;;;;;10124633;29;20244;-87
2022/06/03 20:52:12;;;;;;;10.37;6.63;;;13.00;99.90;;;;;;10136652;29;20240;-87
2022/06/03 20:57:27;;;;;;;7.63;6.77;;;13.00;99.90;;;;;;10133175;29;20671;-88
2022/06/03 21:02:31;;;;;;;11.00;6.37;;;12.90;99.90;;;;;;10131716;29;20664;-87
2022/06/03 21:13:09;;;;;;;8.73;6.13;;;12.70;99.90;;;;;;10132913;29;20289;-87
2022/06/03 21:18:12;;;;;;;12.97;6.53;;;12.70;99.90;;;;;;10133064;29;20268;-87
2022/06/03 21:23:20;;;;;;;6.93;6.23;;;12.60;99.90;;;;;;10130319;29;20345;-87
2022/06/03 21:28:23;;;;;;;8.50;5.97;;;12.50;99.90;;;;;;10132351;29;20662;-87
2022/06/03 21:34:08;;;;;;;7.70;7.00;;;12.50;99.90;;;;;;10135910;29;20248;-88
2022/06/03 21:39:29;;;;;;;9.17;6.73;;;12.30;99.90;;;;;;10131052;29;20628;-88
2022/06/03 21:44:43;;;;;;;7.20;6.50;;;12.30;99.90;;;;;;10144100;29;20763;-87
2022/06/03 21:50:01;;;;;;;9.47;6.83;;;12.30;99.90;;;;;;10126412;29;20236;-87
2022/06/03 21:55:26;;;;;;;9.47;7.43;;;12.20;99.90;;;;;;10129970;29;20287;-88
2022/06/03 22:00:37;;;;;;;7.40;6.80;;;12.40;99.90;;;;;;10130231;29;20259;-89
2022/06/03 22:05:41;;;;;;;7.60;6.67;;;12.30;99.90;;;;;;10124507;29;20236;-89
2022/06/03 22:10:46;;;;;;;6.90;6.30;;;12.20;99.90;;;;;;10127304;29;20252;-88
2022/06/03 22:15:48;;;;;;;9.40;6.80;;;12.10;99.90;;;;;;10120969;29;20639;-88
2022/06/03 22:20:51;;;;;;;7.10;6.40;;;12.10;99.90;;;;;;10129331;29;20627;-88
2022/06/03 22:26:09;;;;;;;8.17;7.40;;;12.00;99.90;;;;;;10127608;29;20624;-88
2022/06/03 22:31:22;;;;;;;8.13;7.27;;;12.00;99.90;;;;;;10130187;29;20273;-87
2022/06/03 22:36:37;;;;;;;8.07;7.27;;;11.80;99.90;;;;;;10144723;29;20211;-87
2022/06/03 22:42:05;;;;;;;8.60;7.27;;;11.60;99.90;;;;;;10127869;29;20323;-87
2022/06/03 22:47:08;;;;;;;11.27;7.60;;;11.70;99.90;;;;;;10126645;29;20235;-88
2022/06/03 22:52:10;;;;;;;8.87;7.97;;;11.90;99.90;;;;;;10128038;29;20678;-87
2022/06/03 22:57:13;;;;;;;9.03;7.73;;;11.90;99.90;;;;;;10111764;29;20208;-87
2022/06/03 23:02:15;;;;;;;8.30;7.60;;;11.90;99.90;;;;;;10126661;29;20655;-87
2022/06/03 23:07:18;;;;;;;8.50;7.70;;;11.90;99.90;;;;;;10127719;29;20621;-87
2022/06/03 23:12:21;;;;;;;9.40;7.40;;;11.80;99.90;;;;;;10111608;29;20251;-88
2022/06/03 23:17:25;;;;;;;7.80;7.10;;;11.70;99.90;;;;;;10132005;29;20235;-87
2022/06/03 23:22:27;;;;;;;11.80;9.33;;;11.60;99.90;;;;;;10131531;29;20263;-87
2022/06/03 23:27:30;;;;;;;10.90;8.90;;;11.60;99.90;;;;;;10133520;29;20354;-87
2022/06/03 23:32:36;;;;;;;9.53;8.63;;;11.50;99.90;;;;;;10132154;29;20244;-87
2022/06/03 23:37:39;;;;;;;9.43;8.53;;;11.60;99.90;;;;;;10131830;29;20302;-87
2022/06/03 23:48:05;;;;;;;13.27;10.43;;;11.50;99.90;;;;;;10150794;29;20547;-87
2022/06/03 23:53:12;;;;;;;12.13;10.93;;;11.60;99.90;;;;;;10135318;29;20231;-87
2022/06/03 23:58:14;;;;;;;13.70;10.23;;;11.60;99.90;;;;;;10134753;29;20248;-87
